Time,TemperatureF,DewpointF,PressureIn,WindDirection,WindDirectionDegrees,WindSpeedMPH,WindSpeedGustMPH,Humidity,HourlyPrecipIn,Conditions,Clouds,dailyrainin,SoftwareType,DateUTC
2013-02-10 00:00:00,24.3,-4.9,30.35,ESE,107,0.0,0.0,27,0.00,,SKC,0.00,VWS V14.01,2013-02-10 05:00:00,
2013-02-10 00:20:00,23.9,-5.2,30.35,ESE,107,0.0,0.0,27,0.00,,SKC,0.00,VWS V14.01,2013-02-10 05:20:00,
2013-02-10 00:40:00,23.7,-5.4,30.35,ESE,107,0.0,0.0,27,0.00,,SKC,0.00,VWS V14.01,2013-02-10 05:40:00,
2013-02-10 01:00:00,23.5,-5.5,30.32,ESE,107,0.0,0.0,27,0.00,,SKC,0.00,VWS V14.01,2013-02-10 06:00:00,
2013-02-10 01:20:00,23.5,-4.0,30.35,ESE,107,0.0,0.0,29,0.00,,SKC,0.00,VWS V14.01,2013-02-10 06:20:00,
2013-02-10 01:40:00,23.7,-3.9,30.35,ESE,107,0.0,0.0,29,0.00,,SKC,0.00,VWS V14.01,2013-02-10 06:40:00,
2013-02-10 02:00:00,24.1,-1.5,30.35,ESE,107,0.0,0.0,32,0.00,,SKC,0.00,VWS V14.01,2013-02-10 07:00:00,
2013-02-10 02:20:00,24.4,-1.2,30.35,ESE,107,0.0,0.0,32,0.00,,SKC,0.00,VWS V14.01,2013-02-10 07:20:00,
2013-02-10 02:40:00,24.3,-1.3,30.35,ESE,107,0.0,0.0,32,0.00,,SKC,0.00,VWS V14.01,2013-02-10 07:40:00,
2013-02-10 03:00:00,24.4,-3.2,30.35,ESE,107,0.0,0.0,29,0.00,,SKC,0.00,VWS V14.01,2013-02-10 08:00:00,
2013-02-10 03:20:00,24.6,-3.1,30.35,ESE,107,0.0,0.0,29,0.00,,SKC,0.00,VWS V14.01,2013-02-10 08:20:00,
2013-02-10 03:40:00,25.2,-2.6,30.35,ESE,107,0.0,0.0,29,0.00,,SKC,0.00,VWS V14.01,2013-02-10 08:40:00,
2013-02-10 04:00:00,25.7,-2.2,30.35,ESE,107,0.0,0.0,29,0.00,,SKC,0.00,VWS V14.01,2013-02-10 09:00:00,
2013-02-10 04:20:00,26.4,-3.8,30.35,ESE,107,0.0,0.0,26,0.00,,SKC,0.00,VWS V14.01,2013-02-10 09:20:00,
2013-02-10 04:40:00,27.3,-1.5,30.35,East,97,0.0,0.0,28,0.00,,SKC,0.00,VWS V14.01,2013-02-10 09:40:00,
2013-02-10 05:00:00,29.1,-2.3,30.35,East,97,0.0,0.0,25,0.00,,SKC,0.00,VWS V14.01,2013-02-10 10:00:00,
2013-02-10 05:20:00,29.3,-2.2,30.35,ESE,105,0.0,0.0,25,0.00,,SKC,0.00,VWS V14.01,2013-02-10 10:20:00,
2013-02-10 05:40:00,30.4,-1.2,30.35,ESE,106,0.0,3.6,25,0.00,,SKC,0.00,VWS V14.01,2013-02-10 10:40:00,
2013-02-10 06:00:00,31.5,-2.0,30.35,ESE,106,0.0,0.0,23,0.00,,SKC,0.00,VWS V14.01,2013-02-10 11:00:00,
2013-02-10 06:20:00,32.2,-1.4,30.35,ESE,104,0.0,4.0,23,0.00,,SKC,0.00,VWS V14.01,2013-02-10 11:20:00,
2013-02-10 06:40:00,32.2,-1.4,30.35,ESE,102,0.0,4.9,23,0.00,,SKC,0.00,VWS V14.01,2013-02-10 11:40:00,
2013-02-10 07:00:00,32.4,-1.3,30.35,East,99,0.0,4.0,23,0.00,,SKC,0.00,VWS V14.01,2013-02-10 12:00:00,
2013-02-10 07:20:00,32.5,-1.1,30.38,East,101,0.0,3.1,23,0.00,,SKC,0.00,VWS V14.01,2013-02-10 12:20:00,
2013-02-10 07:40:00,32.5,-1.1,30.38,East,101,0.0,0.0,23,0.00,,SKC,0.00,VWS V14.01,2013-02-10 12:40:00,
2013-02-10 08:00:00,32.9,-0.8,30.38,East,101,0.0,0.0,23,0.00,,SKC,0.00,VWS V14.01,2013-02-10 13:00:00,
2013-02-10 08:20:00,33.3,-0.5,30.38,East,101,0.0,0.0,23,0.00,,SKC,0.00,VWS V14.01,2013-02-10 13:20:00,
2013-02-10 08:40:00,34.3,-0.6,30.38,ESE,105,0.0,5.4,22,0.00,,SKC,0.00,VWS V14.01,2013-02-10 13:40:00,
2013-02-10 09:00:00,35.4,0.4,30.38,East,101,4.0,5.4,22,0.00,,SKC,0.00,VWS V14.01,2013-02-10 14:00:00,
2013-02-10 09:20:00,36.1,1.0,30.38,ENE,69,0.0,6.3,22,0.00,,SKC,0.00,VWS V14.01,2013-02-10 14:20:00,
2013-02-10 09:40:00,38.3,1.8,30.38,ESE,102,5.4,5.4,21,0.00,,SKC,0.00,VWS V14.01,2013-02-10 14:40:00,
2013-02-10 10:00:00,39.7,3.0,30.38,East,84,5.4,5.4,21,0.00,,SKC,0.00,VWS V14.01,2013-02-10 15:00:00,
2013-02-10 10:20:00,39.2,2.6,30.38,ENE,69,4.0,6.3,21,0.00,,SKC,0.00,VWS V14.01,2013-02-10 15:20:00,
2013-02-10 10:40:00,41.0,4.1,30.38,NE,52,6.3,6.3,21,0.00,,SKC,0.00,VWS V14.01,2013-02-10 15:40:00,
2013-02-10 11:00:00,41.7,4.7,30.41,ENE,73,3.1,6.3,21,0.00,,SKC,0.00,VWS V14.01,2013-02-10 16:00:00,
2013-02-10 11:20:00,42.3,5.1,30.38,ESE,103,5.4,5.4,21,0.00,,SKC,0.00,VWS V14.01,2013-02-10 16:20:00,
2013-02-10 11:40:00,42.8,4.5,30.38,WNW,301,3.6,6.7,20,0.00,,SKC,0.00,VWS V14.01,2013-02-10 16:40:00,
2013-02-10 12:00:00,44.1,5.6,30.35,SSE,163,3.1,5.4,20,0.00,,SKC,0.00,VWS V14.01,2013-02-10 17:00:00,
2013-02-10 12:20:00,43.3,5.0,30.35,East,99,0.0,8.7,20,0.00,,SKC,0.00,VWS V14.01,2013-02-10 17:20:00,
2013-02-10 12:40:00,45.3,6.6,30.35,East,99,0.0,6.3,20,0.00,,SKC,0.00,VWS V14.01,2013-02-10 17:40:00,
2013-02-10 13:00:00,44.2,5.7,30.32,East,93,5.8,8.7,20,0.00,,SKC,0.00,VWS V14.01,2013-02-10 18:00:00,
2013-02-10 13:20:00,44.6,6.0,30.32,East,93,4.9,8.7,20,0.00,,SKC,0.00,VWS V14.01,2013-02-10 18:20:00,
2013-02-10 13:40:00,45.3,6.6,30.32,East,99,6.3,6.3,20,0.00,,SKC,0.00,VWS V14.01,2013-02-10 18:40:00,
2013-02-10 14:00:00,45.5,6.8,30.32,East,90,5.4,8.1,20,0.00,,SKC,0.00,VWS V14.01,2013-02-10 19:00:00,
2013-02-10 14:20:00,43.3,5.0,30.29,SE,125,5.8,8.7,20,0.00,,SKC,0.00,VWS V14.01,2013-02-10 19:20:00,
2013-02-10 14:40:00,44.4,5.9,30.29,North,357,4.0,8.3,20,0.00,,SKC,0.00,VWS V14.01,2013-02-10 19:40:00,
2013-02-10 15:00:00,43.5,5.1,30.29,ESE,114,5.4,7.2,20,0.00,,SKC,0.00,VWS V14.01,2013-02-10 20:00:00,
2013-02-10 15:20:00,44.2,5.7,30.29,East,90,5.8,5.8,20,0.00,,SKC,0.00,VWS V14.01,2013-02-10 20:20:00,
2013-02-10 15:40:00,44.1,5.6,30.29,ENE,67,0.0,5.8,20,0.00,,SKC,0.00,VWS V14.01,2013-02-10 20:40:00,
2013-02-10 16:00:00,43.9,5.4,30.27,ESE,123,2.2,3.6,20,0.00,,SKC,0.00,VWS V14.01,2013-02-10 21:00:00,
2013-02-10 16:20:00,43.2,4.8,30.27,ESE,116,10.1,10.1,20,0.00,,SKC,0.00,VWS V14.01,2013-02-10 21:20:00,
2013-02-10 16:40:00,43.2,4.8,30.27,SE,125,4.0,10.1,20,0.00,,SKC,0.00,VWS V14.01,2013-02-10 21:40:00,
2013-02-10 17:00:00,42.8,4.5,30.27,ENE,70,4.0,4.9,20,0.00,,SKC,0.00,VWS V14.01,2013-02-10 22:00:00,
2013-02-10 17:20:00,42.1,5.0,30.27,ESE,117,0.0,6.3,21,0.00,,SKC,0.00,VWS V14.01,2013-02-10 22:20:00,
2013-02-10 17:40:00,41.5,4.5,30.27,South,191,0.0,4.0,21,0.00,,SKC,0.00,VWS V14.01,2013-02-10 22:40:00,
2013-02-10 18:00:00,41.0,4.1,30.27,ESE,106,0.0,6.3,21,0.00,,SKC,0.00,VWS V14.01,2013-02-10 23:00:00,
2013-02-10 18:20:00,40.6,3.8,30.27,East,97,3.1,6.3,21,0.00,,SKC,0.00,VWS V14.01,2013-02-10 23:20:00,
2013-02-10 18:40:00,40.5,3.6,30.29,ESE,104,3.6,4.9,21,0.00,,SKC,0.00,VWS V14.01,2013-02-10 23:40:00,
2013-02-10 19:00:00,40.5,3.6,30.29,East,88,3.6,5.8,21,0.00,,SKC,0.00,VWS V14.01,2013-02-11 00:00:00,
2013-02-10 19:20:00,37.0,1.7,30.29,East,99,0.0,3.6,22,0.00,,SKC,0.00,VWS V14.01,2013-02-11 00:20:00,
2013-02-10 19:40:00,36.0,0.8,30.27,ENE,77,0.0,5.4,22,0.00,,SKC,0.00,VWS V14.01,2013-02-11 00:40:00,
2013-02-10 20:00:00,34.7,-0.2,30.29,ENE,77,0.0,0.0,22,0.00,,SKC,0.00,VWS V14.01,2013-02-11 01:00:00,
2013-02-10 20:20:00,34.3,6.1,30.27,East,100,2.7,5.8,30,0.00,,SKC,0.00,VWS V14.01,2013-02-11 01:20:00,
2013-02-10 20:40:00,34.3,6.9,30.27,East,93,0.0,2.7,31,0.04,,SKC,0.04,VWS V14.01,2013-02-11 01:40:00,
2013-02-10 21:00:00,34.3,8.9,30.27,East,81,3.1,4.9,34,0.04,,SKC,0.04,VWS V14.01,2013-02-11 02:00:00,
2013-02-10 21:20:00,34.3,10.2,30.27,East,89,4.9,4.9,36,0.04,,SKC,0.04,VWS V14.01,2013-02-11 02:20:00,
2013-02-10 21:40:00,34.5,12.7,30.27,ESE,105,2.7,4.9,40,0.04,,SKC,0.04,VWS V14.01,2013-02-11 02:40:00,
2013-02-10 22:00:00,34.7,12.9,30.27,ESE,102,3.1,4.0,40,0.00,,SKC,0.04,VWS V14.01,2013-02-11 03:00:00,
2013-02-10 22:20:00,34.9,14.1,30.24,NNE,28,0.0,4.0,42,0.00,,SKC,0.04,VWS V14.01,2013-02-11 03:20:00,
2013-02-10 22:40:00,35.4,15.7,30.24,ENE,75,4.0,5.4,44,0.04,,SKC,0.08,VWS V14.01,2013-02-11 03:40:00,
2013-02-10 23:00:00,36.1,16.4,30.24,South,184,3.6,4.0,44,0.04,,SKC,0.08,VWS V14.01,2013-02-11 04:00:00,
2013-02-10 23:20:00,36.3,16.5,30.21,NW,314,0.0,3.6,44,0.04,,SKC,0.08,VWS V14.01,2013-02-11 04:20:00,
2013-02-10 23:40:00,36.7,17.9,30.21,NNW,341,2.7,2.7,46,0.04,,SKC,0.08,VWS V14.01,2013-02-11 04:40:00,